sensor_id;sensor_type;location;lat;lon;timestamp;pressure;altitude;pressure_sealevel;temperature;humidity
22181;BME280;11256;50.830;12.834;2023-04-28T00:04:35;97728.09;;;9.65;45.20
22181;BME280;11256;50.830;12.834;2023-04-28T00:09:35;97726.19;;;9.60;45.53
22181;BME280;11256;50.830;12.834;2023-04-28T00:14:36;97723.78;;;9.54;45.38
22181;BME280;11256;50.830;12.834;2023-04-28T00:19:36;97702.16;;;9.39;45.46
22181;BME280;11256;50.830;12.834;2023-04-28T00:24:37;97706.75;;;9.38;45.47
22181;BME280;11256;50.830;12.834;2023-04-28T00:29:38;97688.13;;;9.27;46.03
22181;BME280;11256;50.830;12.834;2023-04-28T00:34:38;97687.56;;;9.20;45.71
22181;BME280;11256;50.830;12.834;2023-04-28T00:39:38;97687.03;;;9.18;45.78
22181;BME280;11256;50.830;12.834;2023-04-28T00:44:40;97685.44;;;9.12;45.95
22181;BME280;11256;50.830;12.834;2023-04-28T00:49:41;97657.88;;;9.05;46.03
22181;BME280;11256;50.830;12.834;2023-04-28T00:54:41;97667.31;;;9.07;46.13
22181;BME280;11256;50.830;12.834;2023-04-28T00:59:41;97657.03;;;9.04;46.12
22181;BME280;11256;50.830;12.834;2023-04-28T01:04:43;97655.16;;;9.00;46.00
22181;BME280;11256;50.830;12.834;2023-04-28T01:09:44;97647.06;;;8.95;46.41
22181;BME280;11256;50.830;12.834;2023-04-28T01:14:48;97634.06;;;8.87;46.25
22181;BME280;11256;50.830;12.834;2023-04-28T01:19:49;97646.53;;;8.88;46.51
22181;BME280;11256;50.830;12.834;2023-04-28T01:24:49;97641.66;;;8.85;46.63
22181;BME280;11256;50.830;12.834;2023-04-28T01:29:50;97642.72;;;8.84;46.53
22181;BME280;11256;50.830;12.834;2023-04-28T01:34:50;97636.25;;;8.80;46.95
22181;BME280;11256;50.830;12.834;2023-04-28T01:39:51;97620.03;;;8.75;46.74
22181;BME280;11256;50.830;12.834;2023-04-28T01:44:52;97610.56;;;8.62;46.88
22181;BME280;11256;50.830;12.834;2023-04-28T01:49:52;97629.22;;;8.74;46.89
22181;BME280;11256;50.830;12.834;2023-04-28T01:54:53;97618.16;;;8.70;47.13
22181;BME280;11256;50.830;12.834;2023-04-28T01:59:54;97611.66;;;8.66;47.29
22181;BME280;11256;50.830;12.834;2023-04-28T02:04:54;97610.31;;;8.69;47.18
22181;BME280;11256;50.830;12.834;2023-04-28T02:09:57;97614.09;;;8.68;47.12
22181;BME280;11256;50.830;12.834;2023-04-28T02:14:58;97613.00;;;8.64;47.29
22181;BME280;11256;50.830;12.834;2023-04-28T02:20:00;97605.97;;;8.58;47.22
22181;BME280;11256;50.830;12.834;2023-04-28T02:25:00;97593.00;;;8.55;47.59
22181;BME280;11256;50.830;12.834;2023-04-28T02:30:03;97581.16;;;8.51;47.77
22181;BME280;11256;50.830;12.834;2023-04-28T02:35:04;97556.00;;;8.40;47.76
22181;BME280;11256;50.830;12.834;2023-04-28T02:40:05;97571.44;;;8.45;48.05
22181;BME280;11256;50.830;12.834;2023-04-28T02:45:07;97573.56;;;8.43;47.96
22181;BME280;11256;50.830;12.834;2023-04-28T02:50:07;97570.88;;;8.43;47.99
22181;BME280;11256;50.830;12.834;2023-04-28T02:55:08;97575.47;;;8.37;48.00
22181;BME280;11256;50.830;12.834;2023-04-28T03:00:09;97541.69;;;8.20;47.97
22181;BME280;11256;50.830;12.834;2023-04-28T03:05:17;97570.84;;;8.38;48.34
22181;BME280;11256;50.830;12.834;2023-04-28T03:10:17;97575.47;;;8.37;48.26
22181;BME280;11256;50.830;12.834;2023-04-28T03:15:18;97538.75;;;8.21;48.59
22181;BME280;11256;50.830;12.834;2023-04-28T03:20:19;97553.31;;;8.30;48.46
22181;BME280;11256;50.830;12.834;2023-04-28T03:25:19;97554.66;;;8.33;48.71
22181;BME280;11256;50.830;12.834;2023-04-28T03:30:22;97546.03;;;8.26;48.70
22181;BME280;11256;50.830;12.834;2023-04-28T03:35:23;97546.59;;;8.28;48.40
22181;BME280;11256;50.830;12.834;2023-04-28T03:40:23;97543.31;;;8.31;49.12
22181;BME280;11256;50.830;12.834;2023-04-28T03:45:46;97540.09;;;8.29;48.67
22181;BME280;11256;50.830;12.834;2023-04-28T03:50:48;97518.47;;;8.19;49.05
22181;BME280;11256;50.830;12.834;2023-04-28T03:55:49;97530.91;;;8.30;49.03
22181;BME280;11256;50.830;12.834;2023-04-28T04:00:51;97507.97;;;8.22;49.51
22181;BME280;11256;50.830;12.834;2023-04-28T04:05:52;97505.00;;;8.29;49.39
22181;BME280;11256;50.830;12.834;2023-04-28T04:10:52;97514.72;;;8.30;49.36
22181;BME280;11256;50.830;12.834;2023-04-28T04:15:54;97504.44;;;8.27;49.41
22181;BME280;11256;50.830;12.834;2023-04-28T04:20:57;97506.88;;;8.28;49.73
22181;BME280;11256;50.830;12.834;2023-04-28T04:25:57;97496.91;;;8.29;49.97
22181;BME280;11256;50.830;12.834;2023-04-28T04:30:58;97499.06;;;8.27;50.08
22181;BME280;11256;50.830;12.834;2023-04-28T04:35:58;97493.66;;;8.32;50.35
22181;BME280;11256;50.830;12.834;2023-04-28T04:40:58;97488.00;;;8.28;50.30
22181;BME280;11256;50.830;12.834;2023-04-28T04:45:59;97480.16;;;8.32;50.96
22181;BME280;11256;50.830;12.834;2023-04-28T04:50:59;97475.03;;;8.35;50.78
22181;BME280;11256;50.830;12.834;2023-04-28T04:56:00;97479.06;;;8.48;50.79
22181;BME280;11256;50.830;12.834;2023-04-28T05:01:00;97471.22;;;8.46;51.13
22181;BME280;11256;50.830;12.834;2023-04-28T05:06:01;97461.50;;;8.50;51.10
22181;BME280;11256;50.830;12.834;2023-04-28T05:11:09;97471.22;;;8.66;51.62
22181;BME280;11256;50.830;12.834;2023-04-28T05:16:10;97467.91;;;8.79;51.59
22181;BME280;11256;50.830;12.834;2023-04-28T05:21:13;97456.00;;;8.90;51.68
22181;BME280;11256;50.830;12.834;2023-04-28T05:26:13;97476.22;;;9.03;51.78
22181;BME280;11256;50.830;12.834;2023-04-28T05:31:15;97453.81;;;9.02;51.89
22181;BME280;11256;50.830;12.834;2023-04-28T05:36:16;97467.81;;;9.14;51.78
22181;BME280;11256;50.830;12.834;2023-04-28T05:41:16;97448.63;;;9.16;52.05
22181;BME280;11256;50.830;12.834;2023-04-28T05:46:17;97458.31;;;9.27;51.94
22181;BME280;11256;50.830;12.834;2023-04-28T05:51:18;97460.69;;;9.33;52.05
22181;BME280;11256;50.830;12.834;2023-04-28T05:56:19;97457.19;;;9.38;52.16
22181;BME280;11256;50.830;12.834;2023-04-28T06:01:21;97451.44;;;9.44;52.01
22181;BME280;11256;50.830;12.834;2023-04-28T06:06:24;97442.50;;;9.49;52.64
22181;BME280;11256;50.830;12.834;2023-04-28T06:11:25;97417.13;;;9.40;52.73
22181;BME280;11256;50.830;12.834;2023-04-28T06:16:26;97441.88;;;9.62;52.75
22181;BME280;11256;50.830;12.834;2023-04-28T06:21:26;97454.25;;;9.73;53.22
22181;BME280;11256;50.830;12.834;2023-04-28T06:26:27;97447.97;;;9.82;53.46
22181;BME280;11256;50.830;12.834;2023-04-28T06:31:28;97426.00;;;9.89;53.64
22181;BME280;11256;50.830;12.834;2023-04-28T06:36:28;97435.34;;;10.11;53.24
22181;BME280;11256;50.830;12.834;2023-04-28T06:41:29;97427.13;;;10.21;53.05
22181;BME280;11256;50.830;12.834;2023-04-28T06:46:30;97413.78;;;10.30;53.13
22181;BME280;11256;50.830;12.834;2023-04-28T06:51:30;97421.69;;;10.50;52.83
22181;BME280;11256;50.830;12.834;2023-04-28T06:56:34;97432.28;;;10.75;53.53
22181;BME280;11256;50.830;12.834;2023-04-28T07:01:35;97426.00;;;11.03;54.25
22181;BME280;11256;50.830;12.834;2023-04-28T07:06:35;97424.31;;;11.30;54.34
22181;BME280;11256;50.830;12.834;2023-04-28T07:11:36;97420.84;;;11.67;54.35
22181;BME280;11256;50.830;12.834;2023-04-28T07:16:36;97409.28;;;11.93;53.79
22181;BME280;11256;50.830;12.834;2023-04-28T07:21:36;97394.16;;;12.06;53.87
22181;BME280;11256;50.830;12.834;2023-04-28T07:26:37;97403.91;;;12.39;53.18
22181;BME280;11256;50.830;12.834;2023-04-28T07:31:37;97387.72;;;12.47;52.52
22181;BME280;11256;50.830;12.834;2023-04-28T07:36:38;97400.44;;;12.79;52.16
22181;BME280;11256;50.830;12.834;2023-04-28T07:41:39;97381.19;;;12.89;51.94
22181;BME280;11256;50.830;12.834;2023-04-28T07:46:39;97405.69;;;13.16;51.77
22181;BME280;11256;50.830;12.834;2023-04-28T07:51:39;97419.38;;;13.38;51.40
22181;BME280;11256;50.830;12.834;2023-04-28T07:56:40;97404.75;;;13.47;51.09
22181;BME280;11256;50.830;12.834;2023-04-28T08:01:40;97409.44;;;13.69;51.22
22181;BME280;11256;50.830;12.834;2023-04-28T08:06:42;97415.53;;;13.88;50.98
22181;BME280;11256;50.830;12.834;2023-04-28T08:11:42;97416.53;;;14.14;50.41
22181;BME280;11256;50.830;12.834;2023-04-28T08:16:42;97406.63;;;14.18;50.35
22181;BME280;11256;50.830;12.834;2023-04-28T08:21:43;97411.88;;;14.28;50.20
22181;BME280;11256;50.830;12.834;2023-04-28T08:26:43;97412.72;;;14.37;50.14
22181;BME280;11256;50.830;12.834;2023-04-28T08:31:43;97412.34;;;14.52;50.01
22181;BME280;11256;50.830;12.834;2023-04-28T08:36:44;97390.69;;;14.55;49.83
22181;BME280;11256;50.830;12.834;2023-04-28T08:41:45;97403.13;;;14.70;49.74
22181;BME280;11256;50.830;12.834;2023-04-28T08:46:48;97423.25;;;14.82;49.52
22181;BME280;11256;50.830;12.834;2023-04-28T08:51:52;97415.09;;;14.91;49.41
22181;BME280;11256;50.830;12.834;2023-04-28T08:56:55;97421.88;;;15.02;49.39
22181;BME280;11256;50.830;12.834;2023-04-28T09:01:56;97409.56;;;15.13;48.93
22181;BME280;11256;50.830;12.834;2023-04-28T09:06:56;97409.44;;;15.18;48.76
22181;BME280;11256;50.830;12.834;2023-04-28T09:11:58;97421.31;;;15.22;48.36
22181;BME280;11256;50.830;12.834;2023-04-28T09:17:12;97427.25;;;15.15;48.53
22181;BME280;11256;50.830;12.834;2023-04-28T09:22:13;97430.00;;;15.24;48.47
22181;BME280;11256;50.830;12.834;2023-04-28T09:27:13;97407.91;;;15.34;51.00
22181;BME280;11256;50.830;12.834;2023-04-28T09:32:16;97419.81;;;15.46;51.27
22181;BME280;11256;50.830;12.834;2023-04-28T09:37:22;97418.19;;;15.37;50.20
22181;BME280;11256;50.830;12.834;2023-04-28T09:47:36;97411.13;;;15.36;51.61
22181;BME280;11256;50.830;12.834;2023-04-28T09:52:37;97417.53;;;15.40;52.29
22181;BME280;11256;50.830;12.834;2023-04-28T09:57:38;97410.13;;;15.32;51.76
22181;BME280;11256;50.830;12.834;2023-04-28T10:02:39;97423.41;;;15.25;52.34
22181;BME280;11256;50.830;12.834;2023-04-28T10:07:41;97401.25;;;15.26;54.12
22181;BME280;11256;50.830;12.834;2023-04-28T10:12:41;97419.44;;;15.31;55.04
22181;BME280;11256;50.830;12.834;2023-04-28T10:17:43;97421.94;;;15.19;53.52
22181;BME280;11256;50.830;12.834;2023-04-28T10:28:22;97438.25;;;15.02;52.14
22181;BME280;11256;50.830;12.834;2023-04-28T10:33:23;97414.47;;;14.94;52.13
22181;BME280;11256;50.830;12.834;2023-04-28T10:38:24;97426.38;;;14.98;52.75
22181;BME280;11256;50.830;12.834;2023-04-28T11:04:06;97376.78;;;14.65;54.91
22181;BME280;11256;50.830;12.834;2023-04-28T11:19:27;97374.97;;;14.52;53.78
22181;BME280;11256;50.830;12.834;2023-04-28T11:24:29;97349.22;;;14.36;53.96
22181;BME280;11256;50.830;12.834;2023-04-28T11:29:34;97361.97;;;14.49;54.29
22181;BME280;11256;50.830;12.834;2023-04-28T11:34:36;97374.34;;;14.55;54.38
22181;BME280;11256;50.830;12.834;2023-04-28T11:39:36;97350.75;;;14.51;54.06
22181;BME280;11256;50.830;12.834;2023-04-28T11:44:37;97361.84;;;14.63;54.34
22181;BME280;11256;50.830;12.834;2023-04-28T11:49:41;97360.91;;;14.67;55.59
22181;BME280;11256;50.830;12.834;2023-04-28T11:54:42;97361.44;;;14.78;56.06
22181;BME280;11256;50.830;12.834;2023-04-28T11:59:42;97340.72;;;14.68;56.36
22181;BME280;11256;50.830;12.834;2023-04-28T12:04:43;97333.84;;;14.71;57.94
22181;BME280;11256;50.830;12.834;2023-04-28T12:15:06;97352.16;;;14.79;56.74
22181;BME280;11256;50.830;12.834;2023-04-28T12:20:12;97347.31;;;14.76;58.14
22181;BME280;11256;50.830;12.834;2023-04-28T12:25:32;97340.13;;;14.88;56.39
22181;BME280;11256;50.830;12.834;2023-04-28T12:30:36;97327.44;;;14.84;56.94
22181;BME280;11256;50.830;12.834;2023-04-28T12:35:41;97320.53;;;14.78;57.49
22181;BME280;11256;50.830;12.834;2023-04-28T12:40:41;97313.25;;;14.65;59.24
22181;BME280;11256;50.830;12.834;2023-04-28T12:45:42;97296.75;;;14.70;58.46
22181;BME280;11256;50.830;12.834;2023-04-28T12:50:42;97296.59;;;14.75;58.09
22181;BME280;11256;50.830;12.834;2023-04-28T12:55:42;97291.28;;;14.70;60.13
22181;BME280;11256;50.830;12.834;2023-04-28T13:00:43;97297.41;;;14.75;59.57
22181;BME280;11256;50.830;12.834;2023-04-28T13:05:43;97296.44;;;14.71;59.14
22181;BME280;11256;50.830;12.834;2023-04-28T13:10:43;97295.94;;;14.61;59.48
22181;BME280;11256;50.830;12.834;2023-04-28T13:15:44;97287.88;;;14.56;57.85
22181;BME280;11256;50.830;12.834;2023-04-28T13:20:45;97285.81;;;14.61;57.91
22181;BME280;11256;50.830;12.834;2023-04-28T13:25:45;97286.75;;;14.57;58.17
22181;BME280;11256;50.830;12.834;2023-04-28T13:30:46;97288.78;;;14.43;58.49
22181;BME280;11256;50.830;12.834;2023-04-28T13:35:46;97287.09;;;14.25;58.91
22181;BME280;11256;50.830;12.834;2023-04-28T13:40:46;97269.38;;;14.14;58.84
22181;BME280;11256;50.830;12.834;2023-04-28T13:45:47;97260.00;;;13.98;59.31
22181;BME280;11256;50.830;12.834;2023-04-28T13:50:49;97255.19;;;13.95;59.43
22181;BME280;11256;50.830;12.834;2023-04-28T13:55:49;97251.25;;;13.79;58.99
22181;BME280;11256;50.830;12.834;2023-04-28T14:00:53;97249.50;;;13.61;59.96
22181;BME280;11256;50.830;12.834;2023-04-28T14:05:55;97254.59;;;13.54;60.15
22181;BME280;11256;50.830;12.834;2023-04-28T14:10:56;97238.91;;;13.51;60.01
22181;BME280;11256;50.830;12.834;2023-04-28T14:15:56;97225.66;;;13.36;60.00
22181;BME280;11256;50.830;12.834;2023-04-28T14:20:57;97229.72;;;13.25;60.68
22181;BME280;11256;50.830;12.834;2023-04-28T14:25:57;97234.78;;;13.18;61.03
22181;BME280;11256;50.830;12.834;2023-04-28T14:31:02;97234.53;;;13.28;60.61
22181;BME280;11256;50.830;12.834;2023-04-28T14:36:03;97228.13;;;13.24;61.24
22181;BME280;11256;50.830;12.834;2023-04-28T14:41:04;97217.25;;;13.24;61.24
22181;BME280;11256;50.830;12.834;2023-04-28T14:46:04;97196.69;;;13.18;61.12
22181;BME280;11256;50.830;12.834;2023-04-28T14:51:05;97210.56;;;13.30;61.90
22181;BME280;11256;50.830;12.834;2023-04-28T14:56:05;97192.81;;;13.32;60.68
22181;BME280;11256;50.830;12.834;2023-04-28T15:01:06;97195.59;;;13.41;61.56
22181;BME280;11256;50.830;12.834;2023-04-28T15:06:06;97191.50;;;13.52;61.05
22181;BME280;11256;50.830;12.834;2023-04-28T15:11:07;97195.69;;;13.58;61.14
22181;BME280;11256;50.830;12.834;2023-04-28T15:16:07;97186.75;;;13.66;61.24
22181;BME280;11256;50.830;12.834;2023-04-28T15:21:08;97169.47;;;13.62;61.80
22181;BME280;11256;50.830;12.834;2023-04-28T15:26:09;97168.06;;;13.73;60.96
22181;BME280;11256;50.830;12.834;2023-04-28T15:31:10;97168.91;;;13.82;60.75
22181;BME280;11256;50.830;12.834;2023-04-28T15:36:11;97170.72;;;13.86;60.84
22181;BME280;11256;50.830;12.834;2023-04-28T15:41:13;97161.59;;;13.91;60.59
22181;BME280;11256;50.830;12.834;2023-04-28T15:46:14;97166.75;;;14.01;60.40
22181;BME280;11256;50.830;12.834;2023-04-28T15:51:16;97166.63;;;14.06;59.99
22181;BME280;11256;50.830;12.834;2023-04-28T15:56:17;97146.56;;;14.02;59.90
22181;BME280;11256;50.830;12.834;2023-04-28T16:01:17;97136.13;;;14.04;59.69
22181;BME280;11256;50.830;12.834;2023-04-28T16:06:17;97152.31;;;14.00;62.11
22181;BME280;11256;50.830;12.834;2023-04-28T16:11:18;97164.22;;;14.13;59.87
22181;BME280;11256;50.830;12.834;2023-04-28T16:16:19;97170.66;;;14.17;59.80
22181;BME280;11256;50.830;12.834;2023-04-28T16:21:19;97161.38;;;14.18;59.65
22181;BME280;11256;50.830;12.834;2023-04-28T16:26:20;97156.09;;;14.21;59.81
22181;BME280;11256;50.830;12.834;2023-04-28T16:31:21;97164.59;;;14.20;59.88
22181;BME280;11256;50.830;12.834;2023-04-28T16:36:21;97153.63;;;14.11;60.33
22181;BME280;11256;50.830;12.834;2023-04-28T16:41:21;97156.53;;;14.15;59.75
22181;BME280;11256;50.830;12.834;2023-04-28T16:46:22;97164.06;;;14.09;60.34
22181;BME280;11256;50.830;12.834;2023-04-28T16:51:22;97149.16;;;14.07;58.96
22181;BME280;11256;50.830;12.834;2023-04-28T16:56:22;97150.75;;;14.08;58.98
22181;BME280;11256;50.830;12.834;2023-04-28T17:01:23;97140.94;;;13.98;59.83
22181;BME280;11256;50.830;12.834;2023-04-28T17:06:23;97140.13;;;13.98;60.16
22181;BME280;11256;50.830;12.834;2023-04-28T17:11:24;97158.72;;;13.96;60.39
22181;BME280;11256;50.830;12.834;2023-04-28T17:16:24;97159.13;;;13.81;61.45
22181;BME280;11256;50.830;12.834;2023-04-28T17:21:25;97139.09;;;13.77;59.77
22181;BME280;11256;50.830;12.834;2023-04-28T17:26:28;97137.13;;;13.69;59.71
22181;BME280;11256;50.830;12.834;2023-04-28T17:31:31;97153.78;;;13.67;60.23
22181;BME280;11256;50.830;12.834;2023-04-28T17:36:32;97136.78;;;13.62;60.01
22181;BME280;11256;50.830;12.834;2023-04-28T17:41:32;97147.16;;;13.60;60.00
22181;BME280;11256;50.830;12.834;2023-04-28T17:46:33;97132.09;;;13.54;60.72
22181;BME280;11256;50.830;12.834;2023-04-28T17:51:33;97138.00;;;13.56;59.42
22181;BME280;11256;50.830;12.834;2023-04-28T17:56:37;97142.50;;;13.52;59.18
22181;BME280;11256;50.830;12.834;2023-04-28T18:01:38;97132.03;;;13.45;58.91
22181;BME280;11256;50.830;12.834;2023-04-28T18:06:38;97156.59;;;13.54;58.96
22181;BME280;11256;50.830;12.834;2023-04-28T18:11:38;97156.09;;;13.52;60.49
22181;BME280;11256;50.830;12.834;2023-04-28T18:16:39;97158.84;;;13.52;59.05
22181;BME280;11256;50.830;12.834;2023-04-28T18:21:39;97143.53;;;13.42;59.02
22181;BME280;11256;50.830;12.834;2023-04-28T18:26:39;97150.44;;;13.40;61.41
22181;BME280;11256;50.830;12.834;2023-04-28T18:31:40;97163.91;;;13.45;59.35
22181;BME280;11256;50.830;12.834;2023-04-28T18:36:41;97156.38;;;13.42;58.77
22181;BME280;11256;50.830;12.834;2023-04-28T18:41:41;97136.09;;;13.26;58.75
22181;BME280;11256;50.830;12.834;2023-04-28T18:46:42;97166.13;;;13.43;58.60
22181;BME280;11256;50.830;12.834;2023-04-28T18:51:42;97163.91;;;13.45;58.65
22181;BME280;11256;50.830;12.834;2023-04-28T18:56:43;97169.72;;;13.52;58.75
22181;BME280;11256;50.830;12.834;2023-04-28T19:01:47;97166.50;;;13.50;58.80
22181;BME280;11256;50.830;12.834;2023-04-28T19:06:48;97161.03;;;13.50;58.61
22181;BME280;11256;50.830;12.834;2023-04-28T19:11:48;97163.28;;;13.48;58.64
22181;BME280;11256;50.830;12.834;2023-04-28T19:16:49;97166.00;;;13.48;58.80
22181;BME280;11256;50.830;12.834;2023-04-28T19:21:49;97157.34;;;13.46;59.75
22181;BME280;11256;50.830;12.834;2023-04-28T19:26:49;97158.44;;;13.45;58.49
22181;BME280;11256;50.830;12.834;2023-04-28T19:31:50;97158.97;;;13.47;58.54
22181;BME280;11256;50.830;12.834;2023-04-28T19:36:51;97162.47;;;13.47;58.81
22181;BME280;11256;50.830;12.834;2023-04-28T19:41:54;97164.09;;;13.48;58.99
22181;BME280;11256;50.830;12.834;2023-04-28T19:46:55;97148.97;;;13.42;58.77
22181;BME280;11256;50.830;12.834;2023-04-28T19:51:55;97148.19;;;13.42;58.69
22181;BME280;11256;50.830;12.834;2023-04-28T19:56:57;97141.75;;;13.38;59.15
22181;BME280;11256;50.830;12.834;2023-04-28T20:01:58;97141.28;;;13.36;58.80
22181;BME280;11256;50.830;12.834;2023-04-28T20:06:58;97141.41;;;13.31;58.68
22181;BME280;11256;50.830;12.834;2023-04-28T20:12:00;97135.63;;;13.24;58.64
22181;BME280;11256;50.830;12.834;2023-04-28T20:17:02;97135.63;;;13.24;58.54
22181;BME280;11256;50.830;12.834;2023-04-28T20:22:03;97143.44;;;13.25;58.70
22181;BME280;11256;50.830;12.834;2023-04-28T20:27:04;97130.97;;;13.24;58.68
22181;BME280;11256;50.830;12.834;2023-04-28T20:32:04;97125.34;;;13.21;59.04
22181;BME280;11256;50.830;12.834;2023-04-28T20:37:05;97139.81;;;13.30;58.82
22181;BME280;11256;50.830;12.834;2023-04-28T20:42:05;97110.75;;;13.17;58.96
22181;BME280;11256;50.830;12.834;2023-04-28T20:47:06;97135.28;;;13.25;58.96
22181;BME280;11256;50.830;12.834;2023-04-28T20:52:07;97118.28;;;13.20;58.93
22181;BME280;11256;50.830;12.834;2023-04-28T20:57:07;97109.78;;;13.13;59.78
22181;BME280;11256;50.830;12.834;2023-04-28T21:02:08;97122.13;;;13.19;59.13
22181;BME280;11256;50.830;12.834;2023-04-28T21:07:09;97133.31;;;13.17;58.99
22181;BME280;11256;50.830;12.834;2023-04-28T21:12:09;97132.50;;;13.17;58.87
22181;BME280;11256;50.830;12.834;2023-04-28T21:17:10;97139.69;;;13.13;58.87
22181;BME280;11256;50.830;12.834;2023-04-28T21:22:10;97133.25;;;13.09;58.82
22181;BME280;11256;50.830;12.834;2023-04-28T21:27:11;97116.59;;;13.02;58.60
22181;BME280;11256;50.830;12.834;2023-04-28T21:32:11;97112.66;;;12.94;58.91
22181;BME280;11256;50.830;12.834;2023-04-28T21:37:12;97126.34;;;13.03;58.96
22181;BME280;11256;50.830;12.834;2023-04-28T21:42:12;97125.03;;;13.00;58.87
22181;BME280;11256;50.830;12.834;2023-04-28T21:47:12;97129.06;;;13.03;58.74
22181;BME280;11256;50.830;12.834;2023-04-28T21:52:15;97121.38;;;13.05;59.01
22181;BME280;11256;50.830;12.834;2023-04-28T21:57:16;97114.06;;;12.92;58.97
22181;BME280;11256;50.830;12.834;2023-04-28T22:02:16;97111.19;;;12.88;59.09
22181;BME280;11256;50.830;12.834;2023-04-28T22:07:17;97110.34;;;12.88;58.95
22181;BME280;11256;50.830;12.834;2023-04-28T22:12:17;97117.19;;;12.99;58.91
22181;BME280;11256;50.830;12.834;2023-04-28T22:17:18;97094.03;;;12.88;59.37
22181;BME280;11256;50.830;12.834;2023-04-28T22:22:18;97093.69;;;12.81;59.30
22181;BME280;11256;50.830;12.834;2023-04-28T22:27:19;97105.91;;;12.92;59.55
22181;BME280;11256;50.830;12.834;2023-04-28T22:32:19;97096.28;;;12.86;59.53
22181;BME280;11256;50.830;12.834;2023-04-28T22:37:19;97094.16;;;12.83;59.72
22181;BME280;11256;50.830;12.834;2023-04-28T22:42:20;97103.13;;;12.83;59.39
22181;BME280;11256;50.830;12.834;2023-04-28T22:47:21;97087.25;;;12.77;59.63
22181;BME280;11256;50.830;12.834;2023-04-28T22:52:22;97086.31;;;12.81;59.95
22181;BME280;11256;50.830;12.834;2023-04-28T22:57:23;97104.22;;;12.82;59.94
22181;BME280;11256;50.830;12.834;2023-04-28T23:02:23;97090.84;;;12.86;60.39
22181;BME280;11256;50.830;12.834;2023-04-28T23:07:24;97081.81;;;12.77;60.85
22181;BME280;11256;50.830;12.834;2023-04-28T23:12:24;97081.22;;;12.80;60.94
22181;BME280;11256;50.830;12.834;2023-04-28T23:17:25;97079.56;;;12.79;60.72
22181;BME280;11256;50.830;12.834;2023-04-28T23:22:26;97071.06;;;12.72;60.54
22181;BME280;11256;50.830;12.834;2023-04-28T23:27:26;97075.38;;;12.73;60.30
22181;BME280;11256;50.830;12.834;2023-04-28T23:32:26;97083.03;;;12.71;60.36
22181;BME280;11256;50.830;12.834;2023-04-28T23:37:26;97081.44;;;12.70;60.64
22181;BME280;11256;50.830;12.834;2023-04-28T23:42:27;97081.44;;;12.70;60.92
22181;BME280;11256;50.830;12.834;2023-04-28T23:47:28;97084.84;;;12.75;61.35
22181;BME280;11256;50.830;12.834;2023-04-28T23:52:28;97093.28;;;12.74;61.50
22181;BME280;11256;50.830;12.834;2023-04-28T23:57:28;97085.66;;;12.76;63.49
